sensor_id;sensor_type;location;lat;lon;timestamp;P1;durP1;ratioP1;P2;durP2;ratioP2
9056;SDS011;4563;54.756;9.400;2022-09-17T00:00:40;24.67;;;2.97;;
9056;SDS011;4563;54.756;9.400;2022-09-17T00:03:07;20.30;;;2.97;;
9056;SDS011;4563;54.756;9.400;2022-09-17T00:05:34;16.10;;;3.40;;
9056;SDS011;4563;54.756;9.400;2022-09-17T00:08:02;21.37;;;2.90;;
9056;SDS011;4563;54.756;9.400;2022-09-17T00:10:30;32.40;;;2.63;;
9056;SDS011;4563;54.756;9.400;2022-09-17T00:12:59;16.53;;;2.50;;
9056;SDS011;4563;54.756;9.400;2022-09-17T00:15:26;19.93;;;2.30;;
9056;SDS011;4563;54.756;9.400;2022-09-17T00:17:53;15.23;;;2.30;;
9056;SDS011;4563;54.756;9.400;2022-09-17T00:20:22;16.37;;;2.53;;
9056;SDS011;4563;54.756;9.400;2022-09-17T00:22:49;24.10;;;3.50;;
9056;SDS011;4563;54.756;9.400;2022-09-17T00:25:16;14.17;;;2.43;;
9056;SDS011;4563;54.756;9.400;2022-09-17T00:27:43;19.83;;;3.40;;
9056;SDS011;4563;54.756;9.400;2022-09-17T00:30:12;15.23;;;2.83;;
9056;SDS011;4563;54.756;9.400;2022-09-17T00:32:39;17.57;;;2.57;;
9056;SDS011;4563;54.756;9.400;2022-09-17T00:35:06;21.27;;;2.90;;
9056;SDS011;4563;54.756;9.400;2022-09-17T00:37:33;15.50;;;2.23;;
9056;SDS011;4563;54.756;9.400;2022-09-17T00:40:00;18.37;;;2.30;;
9056;SDS011;4563;54.756;9.400;2022-09-17T00:42:27;21.40;;;3.07;;
9056;SDS011;4563;54.756;9.400;2022-09-17T00:44:54;18.67;;;2.87;;
9056;SDS011;4563;54.756;9.400;2022-09-17T00:47:26;14.90;;;2.33;;
9056;SDS011;4563;54.756;9.400;2022-09-17T00:49:56;23.33;;;3.00;;
9056;SDS011;4563;54.756;9.400;2022-09-17T00:52:28;12.23;;;2.50;;
9056;SDS011;4563;54.756;9.400;2022-09-17T00:55:00;16.60;;;2.17;;
9056;SDS011;4563;54.756;9.400;2022-09-17T00:57:33;23.33;;;2.77;;
9056;SDS011;4563;54.756;9.400;2022-09-17T01:00:00;15.13;;;2.37;;
9056;SDS011;4563;54.756;9.400;2022-09-17T01:02:30;20.37;;;3.33;;
9056;SDS011;4563;54.756;9.400;2022-09-17T01:04:57;17.00;;;2.00;;
9056;SDS011;4563;54.756;9.400;2022-09-17T01:07:34;14.67;;;2.37;;
9056;SDS011;4563;54.756;9.400;2022-09-17T01:10:16;12.77;;;2.50;;
9056;SDS011;4563;54.756;9.400;2022-09-17T01:12:58;13.97;;;1.63;;
9056;SDS011;4563;54.756;9.400;2022-09-17T01:15:34;14.87;;;2.50;;
9056;SDS011;4563;54.756;9.400;2022-09-17T01:18:14;20.17;;;3.43;;
9056;SDS011;4563;54.756;9.400;2022-09-17T01:21:02;12.93;;;2.20;;
9056;SDS011;4563;54.756;9.400;2022-09-17T01:27:15;12.70;;;2.00;;
9056;SDS011;4563;54.756;9.400;2022-09-17T01:30:11;13.77;;;1.93;;
9056;SDS011;4563;54.756;9.400;2022-09-17T01:32:45;19.13;;;2.00;;
9056;SDS011;4563;54.756;9.400;2022-09-17T01:35:18;15.27;;;2.43;;
9056;SDS011;4563;54.756;9.400;2022-09-17T01:37:53;11.73;;;1.93;;
9056;SDS011;4563;54.756;9.400;2022-09-17T01:40:27;11.30;;;1.67;;
9056;SDS011;4563;54.756;9.400;2022-09-17T01:42:59;18.77;;;2.27;;
9056;SDS011;4563;54.756;9.400;2022-09-17T01:45:33;17.07;;;2.37;;
9056;SDS011;4563;54.756;9.400;2022-09-17T01:48:06;17.63;;;2.37;;
9056;SDS011;4563;54.756;9.400;2022-09-17T01:50:37;15.60;;;2.20;;
9056;SDS011;4563;54.756;9.400;2022-09-17T01:53:07;14.20;;;2.13;;
9056;SDS011;4563;54.756;9.400;2022-09-17T01:55:37;13.47;;;1.90;;
9056;SDS011;4563;54.756;9.400;2022-09-17T01:58:07;22.10;;;2.90;;
9056;SDS011;4563;54.756;9.400;2022-09-17T02:00:38;13.30;;;2.10;;
9056;SDS011;4563;54.756;9.400;2022-09-17T02:03:11;12.57;;;2.27;;
9056;SDS011;4563;54.756;9.400;2022-09-17T02:05:42;29.30;;;7.57;;
9056;SDS011;4563;54.756;9.400;2022-09-17T02:08:14;20.03;;;2.93;;
9056;SDS011;4563;54.756;9.400;2022-09-17T02:10:46;13.33;;;2.43;;
9056;SDS011;4563;54.756;9.400;2022-09-17T02:13:21;14.77;;;2.47;;
9056;SDS011;4563;54.756;9.400;2022-09-17T02:15:50;15.80;;;3.03;;
9056;SDS011;4563;54.756;9.400;2022-09-17T02:18:23;16.17;;;2.60;;
9056;SDS011;4563;54.756;9.400;2022-09-17T02:20:56;20.97;;;3.07;;
9056;SDS011;4563;54.756;9.400;2022-09-17T02:23:30;11.90;;;2.53;;
9056;SDS011;4563;54.756;9.400;2022-09-17T02:26:03;18.40;;;2.50;;
9056;SDS011;4563;54.756;9.400;2022-09-17T02:28:35;18.60;;;2.67;;
9056;SDS011;4563;54.756;9.400;2022-09-17T02:31:07;12.87;;;2.23;;
9056;SDS011;4563;54.756;9.400;2022-09-17T02:33:36;12.00;;;2.17;;
9056;SDS011;4563;54.756;9.400;2022-09-17T02:36:05;20.10;;;2.37;;
9056;SDS011;4563;54.756;9.400;2022-09-17T02:38:32;16.93;;;2.27;;
9056;SDS011;4563;54.756;9.400;2022-09-17T02:41:00;14.63;;;2.67;;
9056;SDS011;4563;54.756;9.400;2022-09-17T02:43:35;12.23;;;2.30;;
9056;SDS011;4563;54.756;9.400;2022-09-17T02:46:12;16.93;;;2.63;;
9056;SDS011;4563;54.756;9.400;2022-09-17T02:49:03;13.77;;;2.33;;
9056;SDS011;4563;54.756;9.400;2022-09-17T02:51:46;13.73;;;2.00;;
9056;SDS011;4563;54.756;9.400;2022-09-17T02:54:23;17.00;;;2.47;;
9056;SDS011;4563;54.756;9.400;2022-09-17T02:56:56;13.83;;;2.27;;
9056;SDS011;4563;54.756;9.400;2022-09-17T02:59:30;12.03;;;1.80;;
9056;SDS011;4563;54.756;9.400;2022-09-17T03:02:07;16.50;;;1.83;;
9056;SDS011;4563;54.756;9.400;2022-09-17T03:04:42;17.13;;;2.37;;
9056;SDS011;4563;54.756;9.400;2022-09-17T03:07:12;16.83;;;2.53;;
9056;SDS011;4563;54.756;9.400;2022-09-17T03:09:39;16.57;;;2.70;;
9056;SDS011;4563;54.756;9.400;2022-09-17T03:12:07;17.87;;;2.23;;
9056;SDS011;4563;54.756;9.400;2022-09-17T03:14:35;14.50;;;2.70;;
9056;SDS011;4563;54.756;9.400;2022-09-17T03:17:01;12.23;;;2.30;;
9056;SDS011;4563;54.756;9.400;2022-09-17T03:19:28;13.63;;;2.40;;
9056;SDS011;4563;54.756;9.400;2022-09-17T03:21:57;17.13;;;3.40;;
9056;SDS011;4563;54.756;9.400;2022-09-17T03:24:24;14.13;;;1.93;;
9056;SDS011;4563;54.756;9.400;2022-09-17T03:26:51;18.47;;;1.90;;
9056;SDS011;4563;54.756;9.400;2022-09-17T03:29:17;17.27;;;2.17;;
9056;SDS011;4563;54.756;9.400;2022-09-17T03:31:44;17.23;;;2.37;;
9056;SDS011;4563;54.756;9.400;2022-09-17T03:34:11;9.87;;;2.07;;
9056;SDS011;4563;54.756;9.400;2022-09-17T03:36:38;13.07;;;2.40;;
9056;SDS011;4563;54.756;9.400;2022-09-17T03:39:06;16.93;;;2.90;;
9056;SDS011;4563;54.756;9.400;2022-09-17T03:41:33;18.87;;;2.53;;
9056;SDS011;4563;54.756;9.400;2022-09-17T03:44:00;17.00;;;3.13;;
9056;SDS011;4563;54.756;9.400;2022-09-17T03:46:27;11.63;;;1.90;;
9056;SDS011;4563;54.756;9.400;2022-09-17T03:48:54;17.40;;;2.20;;
9056;SDS011;4563;54.756;9.400;2022-09-17T03:51:21;11.80;;;1.80;;
9056;SDS011;4563;54.756;9.400;2022-09-17T03:53:48;19.30;;;2.27;;
9056;SDS011;4563;54.756;9.400;2022-09-17T03:56:16;13.30;;;2.20;;
9056;SDS011;4563;54.756;9.400;2022-09-17T03:58:43;17.43;;;1.97;;
9056;SDS011;4563;54.756;9.400;2022-09-17T04:01:10;20.93;;;2.43;;
9056;SDS011;4563;54.756;9.400;2022-09-17T04:03:37;14.33;;;2.77;;
9056;SDS011;4563;54.756;9.400;2022-09-17T04:06:04;15.87;;;1.97;;
9056;SDS011;4563;54.756;9.400;2022-09-17T04:08:31;14.20;;;2.20;;
9056;SDS011;4563;54.756;9.400;2022-09-17T04:10:58;17.23;;;2.37;;
9056;SDS011;4563;54.756;9.400;2022-09-17T04:13:26;23.90;;;2.97;;
9056;SDS011;4563;54.756;9.400;2022-09-17T04:15:52;12.50;;;2.57;;
9056;SDS011;4563;54.756;9.400;2022-09-17T04:18:19;14.13;;;1.93;;
9056;SDS011;4563;54.756;9.400;2022-09-17T04:20:46;15.23;;;2.10;;
9056;SDS011;4563;54.756;9.400;2022-09-17T04:23:13;12.37;;;2.00;;
9056;SDS011;4563;54.756;9.400;2022-09-17T04:25:40;16.40;;;2.13;;
9056;SDS011;4563;54.756;9.400;2022-09-17T04:28:07;10.80;;;1.93;;
9056;SDS011;4563;54.756;9.400;2022-09-17T04:30:35;18.23;;;3.03;;
9056;SDS011;4563;54.756;9.400;2022-09-17T04:33:02;15.00;;;2.47;;
9056;SDS011;4563;54.756;9.400;2022-09-17T04:35:29;16.87;;;2.20;;
9056;SDS011;4563;54.756;9.400;2022-09-17T04:37:56;11.43;;;1.90;;
9056;SDS011;4563;54.756;9.400;2022-09-17T04:40:24;17.07;;;1.97;;
9056;SDS011;4563;54.756;9.400;2022-09-17T04:42:52;7.33;;;1.80;;
9056;SDS011;4563;54.756;9.400;2022-09-17T04:45:20;14.83;;;1.77;;
9056;SDS011;4563;54.756;9.400;2022-09-17T04:47:48;18.63;;;3.20;;
9056;SDS011;4563;54.756;9.400;2022-09-17T04:50:16;12.93;;;2.03;;
9056;SDS011;4563;54.756;9.400;2022-09-17T04:52:42;15.87;;;2.30;;
9056;SDS011;4563;54.756;9.400;2022-09-17T04:55:10;14.03;;;2.23;;
9056;SDS011;4563;54.756;9.400;2022-09-17T04:57:37;20.20;;;2.40;;
9056;SDS011;4563;54.756;9.400;2022-09-17T05:00:05;12.20;;;1.63;;
9056;SDS011;4563;54.756;9.400;2022-09-17T05:02:33;15.77;;;2.80;;
9056;SDS011;4563;54.756;9.400;2022-09-17T05:05:01;10.63;;;2.50;;
9056;SDS011;4563;54.756;9.400;2022-09-17T05:07:29;9.57;;;1.70;;
9056;SDS011;4563;54.756;9.400;2022-09-17T05:09:55;13.30;;;2.20;;
9056;SDS011;4563;54.756;9.400;2022-09-17T05:12:22;15.70;;;2.10;;
9056;SDS011;4563;54.756;9.400;2022-09-17T05:14:49;14.97;;;2.07;;
9056;SDS011;4563;54.756;9.400;2022-09-17T05:17:16;12.87;;;2.30;;
9056;SDS011;4563;54.756;9.400;2022-09-17T05:19:43;13.77;;;2.37;;
9056;SDS011;4563;54.756;9.400;2022-09-17T05:22:11;15.47;;;2.47;;
9056;SDS011;4563;54.756;9.400;2022-09-17T05:24:37;14.00;;;1.83;;
9056;SDS011;4563;54.756;9.400;2022-09-17T05:27:05;12.27;;;2.10;;
9056;SDS011;4563;54.756;9.400;2022-09-17T05:29:32;11.83;;;2.00;;
9056;SDS011;4563;54.756;9.400;2022-09-17T05:31:58;13.53;;;2.60;;
9056;SDS011;4563;54.756;9.400;2022-09-17T05:34:25;9.03;;;1.63;;
9056;SDS011;4563;54.756;9.400;2022-09-17T05:36:52;14.10;;;2.43;;
9056;SDS011;4563;54.756;9.400;2022-09-17T05:39:21;17.20;;;3.57;;
9056;SDS011;4563;54.756;9.400;2022-09-17T05:41:49;17.87;;;2.30;;
9056;SDS011;4563;54.756;9.400;2022-09-17T05:44:16;22.70;;;2.53;;
9056;SDS011;4563;54.756;9.400;2022-09-17T05:46:43;15.90;;;2.43;;
9056;SDS011;4563;54.756;9.400;2022-09-17T05:49:11;17.07;;;3.07;;
9056;SDS011;4563;54.756;9.400;2022-09-17T05:51:39;18.50;;;2.30;;
9056;SDS011;4563;54.756;9.400;2022-09-17T05:54:06;19.23;;;2.33;;
9056;SDS011;4563;54.756;9.400;2022-09-17T05:56:34;11.40;;;1.97;;
9056;SDS011;4563;54.756;9.400;2022-09-17T05:59:01;18.27;;;2.50;;
9056;SDS011;4563;54.756;9.400;2022-09-17T06:01:28;12.93;;;2.27;;
9056;SDS011;4563;54.756;9.400;2022-09-17T06:03:55;10.83;;;2.07;;
9056;SDS011;4563;54.756;9.400;2022-09-17T06:06:22;15.23;;;2.80;;
9056;SDS011;4563;54.756;9.400;2022-09-17T06:08:53;20.20;;;2.70;;
9056;SDS011;4563;54.756;9.400;2022-09-17T06:11:20;12.20;;;2.53;;
9056;SDS011;4563;54.756;9.400;2022-09-17T06:13:48;13.30;;;2.07;;
9056;SDS011;4563;54.756;9.400;2022-09-17T06:16:20;13.90;;;2.33;;
9056;SDS011;4563;54.756;9.400;2022-09-17T06:18:47;14.70;;;2.37;;
9056;SDS011;4563;54.756;9.400;2022-09-17T06:21:17;15.63;;;2.53;;
9056;SDS011;4563;54.756;9.400;2022-09-17T06:23:45;11.70;;;1.43;;
9056;SDS011;4563;54.756;9.400;2022-09-17T06:26:12;13.20;;;2.20;;
9056;SDS011;4563;54.756;9.400;2022-09-17T06:28:39;16.70;;;2.57;;
9056;SDS011;4563;54.756;9.400;2022-09-17T06:31:08;9.83;;;1.90;;
9056;SDS011;4563;54.756;9.400;2022-09-17T06:33:37;9.00;;;2.10;;
9056;SDS011;4563;54.756;9.400;2022-09-17T06:36:05;13.70;;;1.73;;
9056;SDS011;4563;54.756;9.400;2022-09-17T06:38:33;16.07;;;1.70;;
9056;SDS011;4563;54.756;9.400;2022-09-17T06:41:00;16.57;;;1.80;;
9056;SDS011;4563;54.756;9.400;2022-09-17T06:43:28;14.50;;;1.70;;
9056;SDS011;4563;54.756;9.400;2022-09-17T06:45:56;12.33;;;2.10;;
9056;SDS011;4563;54.756;9.400;2022-09-17T06:48:25;17.73;;;2.70;;
9056;SDS011;4563;54.756;9.400;2022-09-17T06:50:53;10.70;;;2.00;;
9056;SDS011;4563;54.756;9.400;2022-09-17T06:53:23;18.30;;;2.47;;
9056;SDS011;4563;54.756;9.400;2022-09-17T06:55:50;11.23;;;1.70;;
9056;SDS011;4563;54.756;9.400;2022-09-17T06:58:17;19.00;;;2.03;;
9056;SDS011;4563;54.756;9.400;2022-09-17T07:00:44;9.13;;;1.77;;
9056;SDS011;4563;54.756;9.400;2022-09-17T07:03:11;20.40;;;6.63;;
9056;SDS011;4563;54.756;9.400;2022-09-17T07:05:41;11.43;;;1.87;;
9056;SDS011;4563;54.756;9.400;2022-09-17T07:08:09;16.40;;;1.77;;
9056;SDS011;4563;54.756;9.400;2022-09-17T07:10:36;12.60;;;1.67;;
9056;SDS011;4563;54.756;9.400;2022-09-17T07:13:03;17.07;;;2.10;;
9056;SDS011;4563;54.756;9.400;2022-09-17T07:15:30;12.00;;;1.40;;
9056;SDS011;4563;54.756;9.400;2022-09-17T07:17:56;15.50;;;2.80;;
9056;SDS011;4563;54.756;9.400;2022-09-17T07:20:23;16.30;;;1.90;;
9056;SDS011;4563;54.756;9.400;2022-09-17T07:22:57;18.20;;;2.03;;
9056;SDS011;4563;54.756;9.400;2022-09-17T07:25:24;17.03;;;2.00;;
9056;SDS011;4563;54.756;9.400;2022-09-17T07:27:51;10.40;;;1.80;;
9056;SDS011;4563;54.756;9.400;2022-09-17T07:30:18;11.37;;;1.50;;
9056;SDS011;4563;54.756;9.400;2022-09-17T07:32:45;12.77;;;2.00;;
9056;SDS011;4563;54.756;9.400;2022-09-17T07:35:12;13.47;;;1.93;;
9056;SDS011;4563;54.756;9.400;2022-09-17T07:37:39;18.00;;;2.40;;
9056;SDS011;4563;54.756;9.400;2022-09-17T07:40:08;11.67;;;2.43;;
9056;SDS011;4563;54.756;9.400;2022-09-17T07:42:35;12.80;;;2.80;;
9056;SDS011;4563;54.756;9.400;2022-09-17T07:45:01;9.47;;;1.30;;
9056;SDS011;4563;54.756;9.400;2022-09-17T07:47:28;15.63;;;2.03;;
9056;SDS011;4563;54.756;9.400;2022-09-17T07:49:55;14.50;;;2.13;;
9056;SDS011;4563;54.756;9.400;2022-09-17T07:52:22;15.17;;;2.07;;
9056;SDS011;4563;54.756;9.400;2022-09-17T07:54:49;13.77;;;2.83;;
9056;SDS011;4563;54.756;9.400;2022-09-17T07:57:17;19.27;;;3.97;;
9056;SDS011;4563;54.756;9.400;2022-09-17T07:59:44;16.23;;;1.80;;
9056;SDS011;4563;54.756;9.400;2022-09-17T08:02:11;9.27;;;1.60;;
9056;SDS011;4563;54.756;9.400;2022-09-17T08:04:40;16.23;;;2.60;;
9056;SDS011;4563;54.756;9.400;2022-09-17T08:07:10;14.60;;;2.27;;
9056;SDS011;4563;54.756;9.400;2022-09-17T08:09:38;14.60;;;2.00;;
9056;SDS011;4563;54.756;9.400;2022-09-17T08:12:05;10.53;;;1.87;;
9056;SDS011;4563;54.756;9.400;2022-09-17T08:14:33;12.73;;;1.80;;
9056;SDS011;4563;54.756;9.400;2022-09-17T08:17:00;12.80;;;2.17;;
9056;SDS011;4563;54.756;9.400;2022-09-17T08:19:29;15.73;;;2.17;;
9056;SDS011;4563;54.756;9.400;2022-09-17T08:21:58;10.57;;;1.77;;
9056;SDS011;4563;54.756;9.400;2022-09-17T08:24:25;12.67;;;2.27;;
9056;SDS011;4563;54.756;9.400;2022-09-17T08:26:52;13.20;;;2.27;;
9056;SDS011;4563;54.756;9.400;2022-09-17T08:29:19;15.17;;;2.77;;
9056;SDS011;4563;54.756;9.400;2022-09-17T08:31:47;21.17;;;3.13;;
9056;SDS011;4563;54.756;9.400;2022-09-17T08:34:14;8.83;;;1.37;;
9056;SDS011;4563;54.756;9.400;2022-09-17T08:36:41;11.63;;;1.67;;
9056;SDS011;4563;54.756;9.400;2022-09-17T08:39:08;8.70;;;1.27;;
9056;SDS011;4563;54.756;9.400;2022-09-17T08:41:41;12.47;;;1.97;;
9056;SDS011;4563;54.756;9.400;2022-09-17T08:44:23;12.03;;;2.03;;
9056;SDS011;4563;54.756;9.400;2022-09-17T08:46:57;16.87;;;1.63;;
9056;SDS011;4563;54.756;9.400;2022-09-17T08:49:34;8.20;;;1.17;;
9056;SDS011;4563;54.756;9.400;2022-09-17T08:55:16;15.90;;;1.33;;
9056;SDS011;4563;54.756;9.400;2022-09-17T08:57:58;12.20;;;1.50;;
9056;SDS011;4563;54.756;9.400;2022-09-17T09:00:44;9.90;;;1.80;;
9056;SDS011;4563;54.756;9.400;2022-09-17T09:03:24;15.23;;;1.90;;
9056;SDS011;4563;54.756;9.400;2022-09-17T09:06:01;10.50;;;1.53;;
9056;SDS011;4563;54.756;9.400;2022-09-17T09:08:29;10.07;;;1.40;;
9056;SDS011;4563;54.756;9.400;2022-09-17T09:11:01;9.87;;;2.07;;
9056;SDS011;4563;54.756;9.400;2022-09-17T09:13:32;14.27;;;1.70;;
9056;SDS011;4563;54.756;9.400;2022-09-17T09:16:04;16.73;;;4.13;;
9056;SDS011;4563;54.756;9.400;2022-09-17T09:18:38;15.20;;;4.23;;
9056;SDS011;4563;54.756;9.400;2022-09-17T09:21:10;16.03;;;2.63;;
9056;SDS011;4563;54.756;9.400;2022-09-17T09:23:50;12.77;;;1.30;;
9056;SDS011;4563;54.756;9.400;2022-09-17T09:26:21;13.63;;;1.43;;
9056;SDS011;4563;54.756;9.400;2022-09-17T09:28:52;8.20;;;1.47;;
9056;SDS011;4563;54.756;9.400;2022-09-17T09:31:33;18.07;;;1.60;;
9056;SDS011;4563;54.756;9.400;2022-09-17T09:34:17;10.20;;;1.30;;
9056;SDS011;4563;54.756;9.400;2022-09-17T09:36:44;9.33;;;1.40;;
9056;SDS011;4563;54.756;9.400;2022-09-17T09:39:13;6.80;;;1.13;;
9056;SDS011;4563;54.756;9.400;2022-09-17T09:41:46;5.93;;;1.03;;
9056;SDS011;4563;54.756;9.400;2022-09-17T09:44:18;8.67;;;1.50;;
9056;SDS011;4563;54.756;9.400;2022-09-17T09:49:49;11.07;;;1.57;;
9056;SDS011;4563;54.756;9.400;2022-09-17T09:52:33;9.30;;;1.50;;
9056;SDS011;4563;54.756;9.400;2022-09-17T09:55:18;7.57;;;1.30;;
9056;SDS011;4563;54.756;9.400;2022-09-17T09:58:02;7.13;;;1.63;;
9056;SDS011;4563;54.756;9.400;2022-09-17T10:00:37;9.13;;;1.53;;
9056;SDS011;4563;54.756;9.400;2022-09-17T10:03:09;7.80;;;1.10;;
9056;SDS011;4563;54.756;9.400;2022-09-17T10:05:49;6.93;;;1.00;;
9056;SDS011;4563;54.756;9.400;2022-09-17T10:08:22;2.00;;;0.50;;
9056;SDS011;4563;54.756;9.400;2022-09-17T10:10:53;9.93;;;1.30;;
9056;SDS011;4563;54.756;9.400;2022-09-17T10:13:22;6.93;;;0.90;;
9056;SDS011;4563;54.756;9.400;2022-09-17T10:15:50;4.87;;;1.10;;
9056;SDS011;4563;54.756;9.400;2022-09-17T10:18:18;4.37;;;0.60;;
9056;SDS011;4563;54.756;9.400;2022-09-17T10:20:51;5.73;;;0.80;;
9056;SDS011;4563;54.756;9.400;2022-09-17T10:23:24;7.50;;;0.70;;
9056;SDS011;4563;54.756;9.400;2022-09-17T10:25:52;4.47;;;0.87;;
9056;SDS011;4563;54.756;9.400;2022-09-17T10:28:28;3.33;;;0.60;;
9056;SDS011;4563;54.756;9.400;2022-09-17T10:31:08;3.27;;;0.60;;
9056;SDS011;4563;54.756;9.400;2022-09-17T10:33:37;4.27;;;0.63;;
9056;SDS011;4563;54.756;9.400;2022-09-17T10:36:17;2.63;;;0.80;;
9056;SDS011;4563;54.756;9.400;2022-09-17T10:39:17;5.30;;;0.90;;
9056;SDS011;4563;54.756;9.400;2022-09-17T10:41:52;2.83;;;0.53;;
9056;SDS011;4563;54.756;9.400;2022-09-17T10:44:21;2.43;;;0.30;;
9056;SDS011;4563;54.756;9.400;2022-09-17T10:46:48;0.93;;;0.20;;
9056;SDS011;4563;54.756;9.400;2022-09-17T10:49:19;1.20;;;0.20;;
9056;SDS011;4563;54.756;9.400;2022-09-17T10:55:03;1.27;;;0.33;;
9056;SDS011;4563;54.756;9.400;2022-09-17T10:57:45;2.23;;;0.60;;
9056;SDS011;4563;54.756;9.400;2022-09-17T11:00:22;2.17;;;0.37;;
9056;SDS011;4563;54.756;9.400;2022-09-17T11:05:51;2.33;;;0.50;;
9056;SDS011;4563;54.756;9.400;2022-09-17T11:08:44;1.10;;;0.20;;
9056;SDS011;4563;54.756;9.400;2022-09-17T11:11:28;2.47;;;0.50;;
9056;SDS011;4563;54.756;9.400;2022-09-17T11:14:06;2.83;;;0.50;;
9056;SDS011;4563;54.756;9.400;2022-09-17T11:16:46;2.90;;;0.40;;
9056;SDS011;4563;54.756;9.400;2022-09-17T11:19:20;4.03;;;0.63;;
9056;SDS011;4563;54.756;9.400;2022-09-17T11:21:55;3.30;;;0.60;;
9056;SDS011;4563;54.756;9.400;2022-09-17T11:24:38;1.20;;;0.30;;
9056;SDS011;4563;54.756;9.400;2022-09-17T11:27:29;5.73;;;0.47;;
9056;SDS011;4563;54.756;9.400;2022-09-17T11:30:07;2.73;;;0.53;;
9056;SDS011;4563;54.756;9.400;2022-09-17T11:35:35;4.80;;;0.73;;
9056;SDS011;4563;54.756;9.400;2022-09-17T11:38:07;4.43;;;0.60;;
9056;SDS011;4563;54.756;9.400;2022-09-17T11:40:43;2.43;;;0.67;;
9056;SDS011;4563;54.756;9.400;2022-09-17T11:43:15;2.40;;;0.50;;
9056;SDS011;4563;54.756;9.400;2022-09-17T11:45:56;1.73;;;0.40;;
9056;SDS011;4563;54.756;9.400;2022-09-17T11:48:28;1.57;;;0.37;;
9056;SDS011;4563;54.756;9.400;2022-09-17T11:51:04;2.67;;;0.50;;
9056;SDS011;4563;54.756;9.400;2022-09-17T11:53:39;2.63;;;0.37;;
9056;SDS011;4563;54.756;9.400;2022-09-17T11:56:13;1.40;;;0.20;;
9056;SDS011;4563;54.756;9.400;2022-09-17T11:58:47;4.90;;;0.20;;
9056;SDS011;4563;54.756;9.400;2022-09-17T12:01:18;1.77;;;0.17;;
9056;SDS011;4563;54.756;9.400;2022-09-17T12:03:54;0.20;;;0.10;;
9056;SDS011;4563;54.756;9.400;2022-09-17T12:06:27;0.37;;;0.30;;
9056;SDS011;4563;54.756;9.400;2022-09-17T12:08:59;0.93;;;0.20;;
9056;SDS011;4563;54.756;9.400;2022-09-17T12:11:37;1.27;;;0.17;;
9056;SDS011;4563;54.756;9.400;2022-09-17T12:14:08;2.60;;;0.10;;
9056;SDS011;4563;54.756;9.400;2022-09-17T12:16:43;0.60;;;0.10;;
9056;SDS011;4563;54.756;9.400;2022-09-17T12:19:14;0.37;;;0.10;;
9056;SDS011;4563;54.756;9.400;2022-09-17T12:21:47;0.93;;;0.20;;
9056;SDS011;4563;54.756;9.400;2022-09-17T12:24:19;2.80;;;0.20;;
9056;SDS011;4563;54.756;9.400;2022-09-17T12:27:07;0.10;;;0.10;;
9056;SDS011;4563;54.756;9.400;2022-09-17T12:29:57;0.00;;;0.00;;
9056;SDS011;4563;54.756;9.400;2022-09-17T12:32:34;0.37;;;0.00;;
9056;SDS011;4563;54.756;9.400;2022-09-17T12:35:19;0.30;;;0.07;;
9056;SDS011;4563;54.756;9.400;2022-09-17T12:38:01;0.10;;;0.10;;
9056;SDS011;4563;54.756;9.400;2022-09-17T12:40:37;0.20;;;0.10;;
9056;SDS011;4563;54.756;9.400;2022-09-17T12:43:18;0.10;;;0.10;;
9056;SDS011;4563;54.756;9.400;2022-09-17T12:46:12;0.33;;;0.10;;
9056;SDS011;4563;54.756;9.400;2022-09-17T12:48:56;0.17;;;0.00;;
9056;SDS011;4563;54.756;9.400;2022-09-17T12:51:49;0.20;;;0.00;;
9056;SDS011;4563;54.756;9.400;2022-09-17T12:54:28;0.27;;;0.10;;
9056;SDS011;4563;54.756;9.400;2022-09-17T12:57:17;2.27;;;0.30;;
9056;SDS011;4563;54.756;9.400;2022-09-17T12:59:55;1.90;;;0.30;;
9056;SDS011;4563;54.756;9.400;2022-09-17T13:02:26;0.30;;;0.20;;
9056;SDS011;4563;54.756;9.400;2022-09-17T13:08:02;2.57;;;0.30;;
9056;SDS011;4563;54.756;9.400;2022-09-17T13:11:00;0.53;;;0.27;;
9056;SDS011;4563;54.756;9.400;2022-09-17T13:13:41;1.83;;;0.40;;
9056;SDS011;4563;54.756;9.400;2022-09-17T13:16:17;0.33;;;0.13;;
9056;SDS011;4563;54.756;9.400;2022-09-17T13:18:49;1.03;;;0.10;;
9056;SDS011;4563;54.756;9.400;2022-09-17T13:21:24;0.77;;;0.20;;
9056;SDS011;4563;54.756;9.400;2022-09-17T13:23:57;1.30;;;0.20;;
9056;SDS011;4563;54.756;9.400;2022-09-17T13:26:32;0.77;;;0.27;;
9056;SDS011;4563;54.756;9.400;2022-09-17T13:29:01;1.93;;;0.30;;
9056;SDS011;4563;54.756;9.400;2022-09-17T13:31:47;1.10;;;0.20;;
9056;SDS011;4563;54.756;9.400;2022-09-17T13:34:27;1.10;;;0.20;;
9056;SDS011;4563;54.756;9.400;2022-09-17T13:36:56;1.40;;;0.20;;
9056;SDS011;4563;54.756;9.400;2022-09-17T13:42:17;0.87;;;0.20;;
9056;SDS011;4563;54.756;9.400;2022-09-17T13:44:59;0.90;;;0.30;;
9056;SDS011;4563;54.756;9.400;2022-09-17T13:47:30;1.80;;;0.70;;
9056;SDS011;4563;54.756;9.400;2022-09-17T13:49:59;1.97;;;0.30;;
9056;SDS011;4563;54.756;9.400;2022-09-17T13:52:39;1.33;;;0.27;;
9056;SDS011;4563;54.756;9.400;2022-09-17T13:55:28;2.00;;;0.40;;
9056;SDS011;4563;54.756;9.400;2022-09-17T13:57:58;3.50;;;0.20;;
9056;SDS011;4563;54.756;9.400;2022-09-17T14:09:34;3.47;;;0.37;;
9056;SDS011;4563;54.756;9.400;2022-09-17T14:15:33;3.90;;;0.50;;
9056;SDS011;4563;54.756;9.400;2022-09-17T14:18:34;2.33;;;0.30;;
9056;SDS011;4563;54.756;9.400;2022-09-17T14:21:12;1.53;;;0.40;;
9056;SDS011;4563;54.756;9.400;2022-09-17T14:23:44;2.90;;;0.60;;
9056;SDS011;4563;54.756;9.400;2022-09-17T14:26:17;2.53;;;0.40;;
9056;SDS011;4563;54.756;9.400;2022-09-17T14:28:54;4.57;;;0.63;;
9056;SDS011;4563;54.756;9.400;2022-09-17T14:31:30;5.00;;;0.70;;
9056;SDS011;4563;54.756;9.400;2022-09-17T14:34:01;2.27;;;0.40;;
9056;SDS011;4563;54.756;9.400;2022-09-17T14:36:31;3.23;;;0.43;;
9056;SDS011;4563;54.756;9.400;2022-09-17T14:39:03;1.53;;;0.43;;
9056;SDS011;4563;54.756;9.400;2022-09-17T14:41:37;3.77;;;0.50;;
9056;SDS011;4563;54.756;9.400;2022-09-17T14:44:07;3.30;;;0.93;;
9056;SDS011;4563;54.756;9.400;2022-09-17T14:46:41;4.73;;;0.60;;
9056;SDS011;4563;54.756;9.400;2022-09-17T14:49:13;1.97;;;0.50;;
9056;SDS011;4563;54.756;9.400;2022-09-17T14:51:47;2.50;;;0.53;;
9056;SDS011;4563;54.756;9.400;2022-09-17T14:54:15;2.97;;;0.40;;
9056;SDS011;4563;54.756;9.400;2022-09-17T14:56:48;5.67;;;0.40;;
9056;SDS011;4563;54.756;9.400;2022-09-17T14:59:25;3.93;;;0.50;;
9056;SDS011;4563;54.756;9.400;2022-09-17T15:02:01;2.43;;;0.47;;
9056;SDS011;4563;54.756;9.400;2022-09-17T15:04:28;2.80;;;0.63;;
9056;SDS011;4563;54.756;9.400;2022-09-17T15:07:07;1.43;;;0.60;;
9056;SDS011;4563;54.756;9.400;2022-09-17T15:09:34;2.27;;;0.50;;
9056;SDS011;4563;54.756;9.400;2022-09-17T15:12:01;5.27;;;1.00;;
9056;SDS011;4563;54.756;9.400;2022-09-17T15:14:30;5.20;;;0.53;;
9056;SDS011;4563;54.756;9.400;2022-09-17T15:17:00;4.93;;;0.60;;
9056;SDS011;4563;54.756;9.400;2022-09-17T15:19:29;3.23;;;0.53;;
9056;SDS011;4563;54.756;9.400;2022-09-17T15:22:01;3.20;;;0.40;;
9056;SDS011;4563;54.756;9.400;2022-09-17T15:24:35;3.33;;;0.70;;
9056;SDS011;4563;54.756;9.400;2022-09-17T15:27:07;1.53;;;0.40;;
9056;SDS011;4563;54.756;9.400;2022-09-17T15:29:39;4.17;;;0.60;;
9056;SDS011;4563;54.756;9.400;2022-09-17T15:32:10;5.27;;;0.80;;
9056;SDS011;4563;54.756;9.400;2022-09-17T15:34:38;3.63;;;0.77;;
9056;SDS011;4563;54.756;9.400;2022-09-17T15:37:07;5.70;;;1.33;;
9056;SDS011;4563;54.756;9.400;2022-09-17T15:39:47;4.23;;;0.83;;
9056;SDS011;4563;54.756;9.400;2022-09-17T15:42:16;5.80;;;0.87;;
9056;SDS011;4563;54.756;9.400;2022-09-17T15:44:46;8.33;;;1.00;;
9056;SDS011;4563;54.756;9.400;2022-09-17T15:50:18;10.77;;;0.87;;
9056;SDS011;4563;54.756;9.400;2022-09-17T15:52:47;6.40;;;0.87;;
9056;SDS011;4563;54.756;9.400;2022-09-17T15:55:29;8.70;;;0.83;;
9056;SDS011;4563;54.756;9.400;2022-09-17T15:58:01;8.90;;;1.40;;
9056;SDS011;4563;54.756;9.400;2022-09-17T16:00:30;9.17;;;1.10;;
9056;SDS011;4563;54.756;9.400;2022-09-17T16:05:43;7.90;;;2.13;;
9056;SDS011;4563;54.756;9.400;2022-09-17T16:08:21;5.73;;;1.17;;
9056;SDS011;4563;54.756;9.400;2022-09-17T16:10:50;8.67;;;1.30;;
9056;SDS011;4563;54.756;9.400;2022-09-17T16:13:17;7.07;;;1.20;;
9056;SDS011;4563;54.756;9.400;2022-09-17T16:15:44;7.97;;;1.33;;
9056;SDS011;4563;54.756;9.400;2022-09-17T16:18:12;4.77;;;0.93;;